createdAt,value
2022-09-28T00:01:21.201Z,9.10
2022-09-28T00:03:50.949Z,9.20
2022-09-28T00:06:21.252Z,9.00
2022-09-28T00:08:50.262Z,9.00
2022-09-28T00:11:19.322Z,8.90
2022-09-28T00:13:51.769Z,8.90
2022-09-28T00:16:21.647Z,8.90
2022-09-28T00:18:51.414Z,9.00
2022-09-28T00:21:22.292Z,9.00
2022-09-28T00:24:14.362Z,8.90
2022-09-28T00:26:48.999Z,9.00
2022-09-28T00:29:30.130Z,9.00
2022-09-28T00:32:03.151Z,9.00
2022-09-28T00:34:36.105Z,9.00
2022-09-28T00:37:05.364Z,9.00
2022-09-28T00:39:32.770Z,9.00
2022-09-28T00:42:00.102Z,9.00
2022-09-28T00:44:27.249Z,9.10
2022-09-28T00:47:07.167Z,9.10
2022-09-28T00:49:45.765Z,9.10
2022-09-28T00:52:18.914Z,9.20
2022-09-28T00:54:48.615Z,9.10
2022-09-28T00:57:17.174Z,9.10
2022-09-28T00:59:44.779Z,9.10
2022-09-28T01:02:12.258Z,9.30
2022-09-28T01:04:39.467Z,9.30
2022-09-28T01:07:09.019Z,9.20
2022-09-28T01:09:40.756Z,9.10
2022-09-28T01:12:08.240Z,9.20
2022-09-28T01:14:35.561Z,9.20
2022-09-28T01:17:35.227Z,9.20
2022-09-28T01:20:05.938Z,9.10
2022-09-28T01:22:58.243Z,9.10
2022-09-28T01:25:40.212Z,9.10
2022-09-28T01:28:17.428Z,9.10
2022-09-28T01:30:55.829Z,9.00
2022-09-28T01:33:27.017Z,9.10
2022-09-28T01:36:01.688Z,9.00
2022-09-28T01:38:38.291Z,9.00
2022-09-28T01:41:06.900Z,9.00
2022-09-28T01:43:39.358Z,9.10
2022-09-28T01:46:23.963Z,9.00
2022-09-28T01:48:58.967Z,9.10
2022-09-28T01:51:38.011Z,9.10
2022-09-28T01:54:13.265Z,9.20
2022-09-28T01:56:51.006Z,9.30
2022-09-28T01:59:23.299Z,9.40
2022-09-28T02:02:04.720Z,9.50
2022-09-28T02:05:01.195Z,9.50
2022-09-28T02:07:57.485Z,9.60
2022-09-28T02:10:30.206Z,9.60
2022-09-28T02:13:12.395Z,9.60
2022-09-28T02:15:53.904Z,9.70
2022-09-28T02:18:21.212Z,9.70
2022-09-28T02:20:59.513Z,9.70
2022-09-28T02:23:29.302Z,9.80
2022-09-28T02:26:06.759Z,9.80
2022-09-28T02:28:34.014Z,9.80
2022-09-28T02:31:01.478Z,9.90
2022-09-28T02:33:37.141Z,9.90
2022-09-28T02:36:05.250Z,9.90
2022-09-28T02:38:32.871Z,9.90
2022-09-28T02:41:36.670Z,9.90
2022-09-28T02:44:12.533Z,10.00
2022-09-28T02:47:00.584Z,10.00
2022-09-28T02:49:52.927Z,10.10
2022-09-28T02:53:07.501Z,10.10
2022-09-28T02:55:43.133Z,10.20
2022-09-28T02:58:29.055Z,10.20
2022-09-28T03:01:29.569Z,10.20
2022-09-28T03:04:16.413Z,10.20
2022-09-28T03:06:53.793Z,10.20
2022-09-28T03:09:50.524Z,10.20
2022-09-28T03:12:20.341Z,10.20
2022-09-28T03:14:47.564Z,10.20
2022-09-28T03:17:14.714Z,10.30
2022-09-28T03:19:41.892Z,10.40
2022-09-28T03:22:09.055Z,10.40
2022-09-28T03:24:36.197Z,10.40
2022-09-28T03:27:03.312Z,10.50
2022-09-28T03:29:33.161Z,10.50
2022-09-28T03:32:00.465Z,10.60
2022-09-28T03:34:27.650Z,10.50
2022-09-28T03:36:54.808Z,10.60
2022-09-28T03:39:21.903Z,10.60
2022-09-28T03:41:49.008Z,10.60
2022-09-28T03:44:16.158Z,10.60
2022-09-28T03:46:43.337Z,10.70
2022-09-28T03:49:11.041Z,10.80
2022-09-28T03:51:38.163Z,10.90
2022-09-28T03:54:05.611Z,10.90
2022-09-28T03:56:33.161Z,10.90
2022-09-28T03:59:02.425Z,10.90
2022-09-28T04:01:29.617Z,10.90
2022-09-28T04:03:57.063Z,11.00
2022-09-28T04:06:24.906Z,10.90
2022-09-28T04:08:52.204Z,11.00
2022-09-28T04:11:19.534Z,11.00
2022-09-28T04:13:49.977Z,11.00
2022-09-28T04:16:18.040Z,11.00
2022-09-28T04:18:45.190Z,11.00
2022-09-28T04:21:14.186Z,11.00
2022-09-28T04:23:41.439Z,10.90
2022-09-28T04:26:16.758Z,11.00
2022-09-28T04:29:06.545Z,11.00
2022-09-28T04:31:44.638Z,11.00
2022-09-28T04:34:13.645Z,11.00
2022-09-28T04:36:41.499Z,11.10
2022-09-28T04:39:08.646Z,11.10
2022-09-28T04:41:36.066Z,11.10
2022-09-28T04:44:03.248Z,11.10
2022-09-28T04:46:30.349Z,11.10
2022-09-28T04:48:57.504Z,11.10
2022-09-28T04:51:24.926Z,11.10
2022-09-28T04:53:52.071Z,11.10
2022-09-28T04:56:19.861Z,11.20
2022-09-28T04:58:52.432Z,11.10
2022-09-28T05:01:23.750Z,11.10
2022-09-28T05:03:51.313Z,11.10
2022-09-28T05:06:18.436Z,11.10
2022-09-28T05:08:47.382Z,11.00
2022-09-28T05:11:14.963Z,11.10
2022-09-28T05:13:45.485Z,11.10
2022-09-28T05:16:15.963Z,11.10
2022-09-28T05:18:43.653Z,11.10
2022-09-28T05:21:13.120Z,11.10
2022-09-28T05:23:41.068Z,11.20
2022-09-28T05:26:08.279Z,11.20
2022-09-28T05:28:35.375Z,11.30
2022-09-28T05:31:05.016Z,11.30
2022-09-28T05:33:33.238Z,11.30
2022-09-28T05:36:01.503Z,11.20
2022-09-28T05:38:30.126Z,11.20
2022-09-28T05:40:57.516Z,11.30
2022-09-28T05:43:24.703Z,11.40
2022-09-28T05:45:55.650Z,11.40
2022-09-28T05:48:23.565Z,11.40
2022-09-28T05:50:52.569Z,11.40
2022-09-28T05:53:20.306Z,11.40
2022-09-28T05:55:47.921Z,11.50
2022-09-28T05:58:15.399Z,11.60
2022-09-28T06:00:44.320Z,11.60
2022-09-28T06:03:13.991Z,11.60
2022-09-28T06:05:41.782Z,11.70
2022-09-28T06:08:13.324Z,11.70
2022-09-28T06:10:41.117Z,11.80
2022-09-28T06:13:08.719Z,11.70
2022-09-28T06:15:36.612Z,11.80
2022-09-28T06:18:14.268Z,12.00
2022-09-28T06:20:41.946Z,12.10
2022-09-28T06:23:10.293Z,12.10
2022-09-28T06:25:37.772Z,12.20
2022-09-28T06:28:06.515Z,12.10
2022-09-28T06:30:36.400Z,12.20
2022-09-28T06:33:03.698Z,12.20
2022-09-28T06:35:32.380Z,12.20
2022-09-28T06:38:00.158Z,12.10
2022-09-28T06:40:27.961Z,12.30
2022-09-28T06:43:14.899Z,12.50
2022-09-28T06:45:43.674Z,12.70
2022-09-28T06:48:11.737Z,12.50
2022-09-28T06:50:41.052Z,12.50
2022-09-28T06:53:10.954Z,12.70
2022-09-28T06:55:42.828Z,12.60
2022-09-28T06:58:15.437Z,12.80
2022-09-28T07:00:43.135Z,12.80
2022-09-28T07:03:16.016Z,12.90
2022-09-28T07:05:51.444Z,12.70
2022-09-28T07:08:19.795Z,12.70
2022-09-28T07:10:49.227Z,13.10
2022-09-28T07:13:45.196Z,13.20
2022-09-28T07:16:04.697Z,13.00
2022-09-28T07:18:32.121Z,13.20
2022-09-28T07:20:59.959Z,13.20
2022-09-28T07:23:29.692Z,13.20
2022-09-28T07:25:58.374Z,13.00
2022-09-28T07:28:25.613Z,13.10
2022-09-28T07:30:52.937Z,13.10
2022-09-28T07:33:20.141Z,13.10
2022-09-28T07:35:52.491Z,13.30
2022-09-28T07:38:19.656Z,13.20
2022-09-28T07:41:05.555Z,13.30
2022-09-28T07:43:33.295Z,13.20
2022-09-28T07:46:00.595Z,13.30
2022-09-28T07:48:27.932Z,13.40
2022-09-28T07:50:57.375Z,13.90
2022-09-28T07:53:25.727Z,14.40
2022-09-28T07:56:10.138Z,14.80
2022-09-28T07:58:39.056Z,15.10
2022-09-28T08:01:09.175Z,14.60
2022-09-28T08:03:37.263Z,14.60
2022-09-28T08:06:07.346Z,14.70
2022-09-28T08:08:35.842Z,14.30
2022-09-28T08:11:06.021Z,14.10
2022-09-28T08:13:33.171Z,13.80
2022-09-28T08:16:04.514Z,13.60
2022-09-28T08:18:32.222Z,13.50
2022-09-28T08:21:17.848Z,13.50
2022-09-28T08:23:45.415Z,13.70
2022-09-28T08:26:15.525Z,14.00
2022-09-28T08:28:45.291Z,14.00
2022-09-28T08:31:12.558Z,14.20
2022-09-28T08:33:40.480Z,13.70
2022-09-28T08:36:07.732Z,13.60
2022-09-28T08:38:34.891Z,13.70
2022-09-28T08:41:05.205Z,13.70
2022-09-28T08:43:48.332Z,13.60
2022-09-28T08:46:22.672Z,13.80
2022-09-28T08:49:24.523Z,13.60
2022-09-28T08:52:04.057Z,13.40
2022-09-28T08:54:50.511Z,13.80
2022-09-28T08:57:23.617Z,14.00
2022-09-28T08:59:56.187Z,13.90
2022-09-28T09:02:34.168Z,13.70
2022-09-28T09:05:05.141Z,13.70
2022-09-28T09:08:00.758Z,13.40
2022-09-28T09:10:43.350Z,13.50
2022-09-28T09:13:32.061Z,13.70
2022-09-28T09:16:11.325Z,14.00
2022-09-28T09:19:13.484Z,14.00
2022-09-28T09:21:49.281Z,13.90
2022-09-28T09:24:27.468Z,13.70
2022-09-28T09:27:02.317Z,13.40
2022-09-28T09:29:38.138Z,13.30
2022-09-28T09:32:32.724Z,13.20
2022-09-28T09:35:31.471Z,12.80
2022-09-28T09:38:17.607Z,12.70
2022-09-28T09:41:36.170Z,12.70
2022-09-28T09:44:12.638Z,12.40
2022-09-28T09:47:08.224Z,12.40
2022-09-28T09:49:47.295Z,12.60
2022-09-28T09:55:02.641Z,13.00
2022-09-28T09:57:40.386Z,13.20
2022-09-28T10:00:15.664Z,13.20
2022-09-28T10:02:45.175Z,13.00
2022-09-28T10:05:12.324Z,13.10
2022-09-28T10:07:46.908Z,13.20
2022-09-28T10:10:35.037Z,13.30
2022-09-28T10:13:02.298Z,13.00
2022-09-28T10:15:32.118Z,12.90
2022-09-28T10:18:04.032Z,12.80
2022-09-28T10:20:37.174Z,12.60
2022-09-28T10:23:06.894Z,12.30
2022-09-28T10:25:38.115Z,12.20
2022-09-28T10:28:19.402Z,12.10
2022-09-28T10:30:46.784Z,12.20
2022-09-28T10:33:34.275Z,12.00
2022-09-28T10:36:04.849Z,12.10
2022-09-28T10:38:33.679Z,12.20
2022-09-28T10:41:11.721Z,12.10
2022-09-28T10:43:52.062Z,12.20
2022-09-28T10:46:23.709Z,12.20
2022-09-28T10:49:17.725Z,12.10
2022-09-28T10:51:47.396Z,12.00
2022-09-28T10:54:20.251Z,12.00
2022-09-28T10:56:49.258Z,12.00
2022-09-28T10:59:31.769Z,12.20
2022-09-28T11:02:12.815Z,12.60
2022-09-28T11:04:49.689Z,13.10
2022-09-28T11:07:24.944Z,13.50
2022-09-28T11:09:53.385Z,13.90
2022-09-28T11:12:26.635Z,14.00
2022-09-28T11:15:01.650Z,14.20
2022-09-28T11:17:39.157Z,14.10
2022-09-28T11:20:27.330Z,14.40
2022-09-28T11:22:59.395Z,14.40
2022-09-28T11:25:29.438Z,14.60
2022-09-28T11:27:59.868Z,14.40
2022-09-28T11:30:28.899Z,14.30
2022-09-28T11:33:11.962Z,14.20
2022-09-28T11:36:00.891Z,14.10
2022-09-28T11:39:08.660Z,14.00
2022-09-28T11:41:52.834Z,14.30
2022-09-28T11:44:35.081Z,14.20
2022-09-28T11:47:21.211Z,14.60
2022-09-28T11:49:57.657Z,14.70
2022-09-28T11:52:36.844Z,14.30
2022-09-28T11:55:19.840Z,13.90
2022-09-28T11:57:54.129Z,13.50
2022-09-28T12:00:24.972Z,13.50
2022-09-28T12:02:55.971Z,13.50
2022-09-28T12:05:25.391Z,13.50
2022-09-28T12:08:09.513Z,13.30
2022-09-28T12:10:45.539Z,13.30
2022-09-28T12:13:17.483Z,13.20
2022-09-28T12:16:23.308Z,13.30
2022-09-28T12:19:06.212Z,13.00
2022-09-28T12:21:44.914Z,13.20
2022-09-28T12:24:24.183Z,13.30
2022-09-28T12:27:24.031Z,12.90
2022-09-28T12:30:03.007Z,12.90
2022-09-28T12:32:51.301Z,13.00
2022-09-28T12:35:46.272Z,12.90
2022-09-28T12:38:27.001Z,12.70
2022-09-28T12:41:00.370Z,13.00
2022-09-28T12:44:04.000Z,13.00
2022-09-28T12:46:46.620Z,13.10
2022-09-28T12:52:32.546Z,13.30
2022-09-28T12:54:59.842Z,13.50
2022-09-28T12:58:00.188Z,13.30
2022-09-28T13:00:40.142Z,13.20
2022-09-28T13:03:19.208Z,13.20
2022-09-28T13:06:01.770Z,12.90
2022-09-28T13:08:56.806Z,12.90
2022-09-28T13:11:42.838Z,12.80
2022-09-28T13:14:10.062Z,12.80
2022-09-28T13:17:05.876Z,13.00
2022-09-28T13:19:48.948Z,13.10
2022-09-28T13:22:44.412Z,13.30
2022-09-28T13:25:18.084Z,13.20
2022-09-28T13:27:55.541Z,13.20
2022-09-28T13:30:23.081Z,12.90
2022-09-28T13:32:51.024Z,12.80
2022-09-28T13:35:21.713Z,12.50
2022-09-28T13:38:23.440Z,12.40
2022-09-28T13:41:06.169Z,12.20
2022-09-28T13:44:00.423Z,12.10
2022-09-28T13:46:34.497Z,12.20
2022-09-28T13:49:40.337Z,12.40
2022-09-28T13:52:20.975Z,12.60
2022-09-28T13:55:09.201Z,12.50
2022-09-28T13:57:56.050Z,12.60
2022-09-28T14:00:30.849Z,12.90
2022-09-28T14:03:25.593Z,13.10
2022-09-28T14:06:08.242Z,13.10
2022-09-28T14:08:44.781Z,12.90
2022-09-28T14:11:25.024Z,12.60
2022-09-28T14:14:06.344Z,12.60
2022-09-28T14:16:35.930Z,12.50
2022-09-28T14:19:23.675Z,12.70
2022-09-28T14:21:53.765Z,12.90
2022-09-28T14:24:58.872Z,13.00
2022-09-28T14:27:41.921Z,12.90
2022-09-28T14:30:12.096Z,12.60
2022-09-28T14:32:52.747Z,12.30
2022-09-28T14:35:39.351Z,12.20
2022-09-28T14:38:49.341Z,12.10
2022-09-28T14:41:17.825Z,12.10
2022-09-28T14:43:44.927Z,12.00
2022-09-28T14:46:12.428Z,11.90
2022-09-28T14:49:01.824Z,11.90
2022-09-28T14:51:30.296Z,11.90
2022-09-28T14:54:04.954Z,12.00
2022-09-28T14:56:39.220Z,11.80
2022-09-28T14:59:10.938Z,11.90
2022-09-28T15:01:39.056Z,11.80
2022-09-28T15:04:11.403Z,11.90
2022-09-28T15:06:49.662Z,11.80
2022-09-28T15:09:48.064Z,11.70
2022-09-28T15:12:18.440Z,11.70
2022-09-28T15:14:57.532Z,11.70
2022-09-28T15:17:28.805Z,11.70
2022-09-28T15:20:36.724Z,11.70
2022-09-28T15:23:04.468Z,11.70
2022-09-28T15:25:33.119Z,11.60
2022-09-28T15:28:13.672Z,11.60
2022-09-28T15:30:40.821Z,11.60
2022-09-28T15:33:47.784Z,11.50
2022-09-28T15:36:20.747Z,11.70
2022-09-28T15:39:01.517Z,11.50
2022-09-28T15:41:29.511Z,11.50
2022-09-28T15:44:29.889Z,11.50
2022-09-28T15:47:11.436Z,11.40
2022-09-28T15:49:41.440Z,11.30
2022-09-28T15:52:24.411Z,11.20
2022-09-28T15:54:51.924Z,11.10
2022-09-28T15:57:34.284Z,11.10
2022-09-28T16:00:01.866Z,11.20
2022-09-28T16:02:29.864Z,11.20
2022-09-28T16:05:00.867Z,11.20
2022-09-28T16:07:41.629Z,11.20
2022-09-28T16:10:15.359Z,11.10
2022-09-28T16:13:20.182Z,11.10
2022-09-28T16:15:58.328Z,11.00
2022-09-28T16:18:27.240Z,11.00
2022-09-28T16:21:26.584Z,11.00
2022-09-28T16:23:55.962Z,10.90
2022-09-28T16:26:41.481Z,10.90
2022-09-28T16:29:32.534Z,10.90
2022-09-28T16:32:25.578Z,10.90
2022-09-28T16:35:25.573Z,10.70
2022-09-28T16:38:01.913Z,10.60
2022-09-28T16:40:29.709Z,10.40
2022-09-28T16:43:00.031Z,10.40
2022-09-28T16:45:28.599Z,10.30
2022-09-28T16:47:57.636Z,10.30
2022-09-28T16:50:26.178Z,10.30
2022-09-28T16:53:24.964Z,10.20
2022-09-28T16:55:52.107Z,10.30
2022-09-28T16:58:19.406Z,10.30
2022-09-28T17:00:46.886Z,10.30
2022-09-28T17:03:16.122Z,10.30
2022-09-28T17:05:43.723Z,10.20
2022-09-28T17:08:15.819Z,10.20
2022-09-28T17:11:14.507Z,10.20
2022-09-28T17:13:43.801Z,10.30
2022-09-28T17:16:17.975Z,10.20
2022-09-28T17:18:46.241Z,10.20
2022-09-28T17:21:19.050Z,10.10
2022-09-28T17:23:47.726Z,10.00
2022-09-28T17:26:31.740Z,10.00
2022-09-28T17:28:59.756Z,10.00
2022-09-28T17:31:27.086Z,10.00
2022-09-28T17:33:54.691Z,9.90
2022-09-28T17:36:22.592Z,9.80
2022-09-28T17:39:15.192Z,9.60
2022-09-28T17:41:43.580Z,9.70
2022-09-28T17:44:15.314Z,9.70
2022-09-28T17:46:48.843Z,9.70
2022-09-28T17:49:17.079Z,9.60
2022-09-28T17:51:47.142Z,9.60
2022-09-28T17:54:16.963Z,9.60
2022-09-28T17:56:44.288Z,9.40
2022-09-28T17:59:14.553Z,9.40
2022-09-28T18:01:42.440Z,9.40
2022-09-28T18:04:19.146Z,9.40
2022-09-28T18:06:51.486Z,9.30
2022-09-28T18:09:25.242Z,9.10
2022-09-28T18:12:00.407Z,9.00
2022-09-28T18:14:28.544Z,9.00
2022-09-28T18:16:56.020Z,8.90
2022-09-28T18:19:23.532Z,8.90
2022-09-28T18:21:50.890Z,8.90
2022-09-28T18:24:18.455Z,8.70
2022-09-28T18:26:45.691Z,8.70
2022-09-28T18:29:12.904Z,8.60
2022-09-28T18:31:40.677Z,8.50
2022-09-28T18:34:08.491Z,8.50
2022-09-28T18:36:36.152Z,8.40
2022-09-28T18:39:04.743Z,8.30
2022-09-28T18:41:33.660Z,8.20
2022-09-28T18:44:03.189Z,8.20
2022-09-28T18:46:37.363Z,8.20
2022-09-28T18:49:07.478Z,8.10
2022-09-28T18:51:37.762Z,8.00
2022-09-28T18:54:08.670Z,8.00
2022-09-28T18:56:40.015Z,8.20
2022-09-28T18:59:12.205Z,8.20
2022-09-28T19:01:42.008Z,8.30
2022-09-28T19:04:10.612Z,8.30
2022-09-28T19:06:42.989Z,8.40
2022-09-28T19:09:10.813Z,8.40
2022-09-28T19:11:38.412Z,8.40
2022-09-28T19:14:05.604Z,8.50
2022-09-28T19:16:34.283Z,8.60
2022-09-28T19:19:02.831Z,8.60
2022-09-28T19:21:30.626Z,8.60
2022-09-28T19:24:01.081Z,8.60
2022-09-28T19:26:31.283Z,8.50
2022-09-28T19:29:01.672Z,8.50
2022-09-28T19:31:31.781Z,8.60
2022-09-28T19:33:59.212Z,8.60
2022-09-28T19:36:29.639Z,8.60
2022-09-28T19:39:05.277Z,8.60
2022-09-28T19:41:55.402Z,8.60
2022-09-28T19:44:28.456Z,8.70
2022-09-28T19:47:00.314Z,8.70
2022-09-28T19:49:33.549Z,8.80
2022-09-28T19:52:18.729Z,8.70
2022-09-28T19:54:57.332Z,8.80
2022-09-28T19:57:32.373Z,8.90
2022-09-28T20:00:03.218Z,8.90
2022-09-28T20:02:31.276Z,8.90
2022-09-28T20:04:59.334Z,8.90
2022-09-28T20:07:27.119Z,9.00
2022-09-28T20:09:54.627Z,9.00
2022-09-28T20:12:24.138Z,9.00
2022-09-28T20:14:51.657Z,9.00
2022-09-28T20:17:22.374Z,9.00
2022-09-28T20:19:52.171Z,9.10
2022-09-28T20:22:20.295Z,9.00
2022-09-28T20:24:48.786Z,9.00
2022-09-28T20:27:17.616Z,8.90
2022-09-28T20:29:45.239Z,8.90
2022-09-28T20:32:13.544Z,8.90
2022-09-28T20:34:44.610Z,8.90
2022-09-28T20:37:13.857Z,8.80
2022-09-28T20:39:44.806Z,8.80
2022-09-28T20:42:12.324Z,8.70
2022-09-28T20:44:39.647Z,8.90
2022-09-28T20:47:06.874Z,8.90
2022-09-28T20:49:34.184Z,8.80
2022-09-28T20:52:01.501Z,8.90
2022-09-28T20:54:29.119Z,8.80
2022-09-28T20:56:56.314Z,8.80
2022-09-28T20:59:26.047Z,8.80
2022-09-28T21:01:53.376Z,8.60
2022-09-28T21:04:20.772Z,8.60
2022-09-28T21:06:48.056Z,8.50
2022-09-28T21:09:15.243Z,8.60
2022-09-28T21:11:42.591Z,8.60
2022-09-28T21:14:10.611Z,8.60
2022-09-28T21:16:39.050Z,8.50
2022-09-28T21:19:06.320Z,8.50
2022-09-28T21:21:33.880Z,8.40
2022-09-28T21:24:02.116Z,8.30
2022-09-28T21:26:31.378Z,8.40
2022-09-28T21:28:59.562Z,8.30
2022-09-28T21:31:30.094Z,8.20
2022-09-28T21:33:58.654Z,8.20
2022-09-28T21:36:26.355Z,8.20
2022-09-28T21:38:56.257Z,8.10
2022-09-28T21:41:24.282Z,8.00
2022-09-28T21:43:52.077Z,7.90
2022-09-28T21:46:19.313Z,7.90
2022-09-28T21:48:46.562Z,7.90
2022-09-28T21:51:15.019Z,8.00
2022-09-28T21:53:43.016Z,8.00
2022-09-28T21:56:12.758Z,7.90
2022-09-28T21:58:40.271Z,7.80
2022-09-28T22:01:13.623Z,7.80
2022-09-28T22:03:42.143Z,7.70
2022-09-28T22:06:09.748Z,7.60
2022-09-28T22:08:37.519Z,7.50
2022-09-28T22:11:10.552Z,7.40
2022-09-28T22:13:42.781Z,7.30
2022-09-28T22:16:11.354Z,7.40
2022-09-28T22:18:38.556Z,7.50
2022-09-28T22:21:12.658Z,7.40
2022-09-28T22:23:40.252Z,7.40
2022-09-28T22:26:20.798Z,7.40
2022-09-28T22:28:53.598Z,7.30
2022-09-28T22:31:26.165Z,7.20
2022-09-28T22:33:54.300Z,7.20
2022-09-28T22:36:21.607Z,7.10
2022-09-28T22:38:49.389Z,7.10
2022-09-28T22:41:19.629Z,7.00
2022-09-28T22:43:47.794Z,6.90
2022-09-28T22:46:17.249Z,6.80
2022-09-28T22:48:49.142Z,6.80
2022-09-28T22:51:17.001Z,6.70
2022-09-28T22:53:44.555Z,6.70
2022-09-28T22:56:17.482Z,6.60
2022-09-28T22:58:47.272Z,6.60
2022-09-28T23:01:24.486Z,6.60
2022-09-28T23:03:53.488Z,6.50
2022-09-28T23:06:23.939Z,6.70
2022-09-28T23:08:52.323Z,6.80
2022-09-28T23:11:19.982Z,6.90
2022-09-28T23:13:54.893Z,6.90
2022-09-28T23:16:24.941Z,6.90
2022-09-28T23:18:53.274Z,7.10
2022-09-28T23:21:23.122Z,7.10
2022-09-28T23:23:58.743Z,7.20
2022-09-28T23:26:29.266Z,7.30
2022-09-28T23:28:56.636Z,7.40
2022-09-28T23:31:29.048Z,7.30
2022-09-28T23:34:04.688Z,7.40
2022-09-28T23:36:32.557Z,7.30
2022-09-28T23:38:59.938Z,7.40
2022-09-28T23:41:27.428Z,7.40
2022-09-28T23:43:54.618Z,7.50
2022-09-28T23:46:21.805Z,7.40
2022-09-28T23:48:50.046Z,7.30
2022-09-28T23:51:17.338Z,7.20
2022-09-28T23:53:44.682Z,7.10
2022-09-28T23:56:12.176Z,6.90
2022-09-28T23:58:39.205Z,6.80
